sensor_id;sensor_type;location;lat;lon;timestamp;temperature;humidity
67799;SHT30;54596;43.216;27.904;2023-06-10T00:01:32;18.26;85.81
67799;SHT30;54596;43.216;27.904;2023-06-10T00:04:01;18.28;86.00
67799;SHT30;54596;43.216;27.904;2023-06-10T00:06:27;18.25;86.09
67799;SHT30;54596;43.216;27.904;2023-06-10T00:08:53;18.19;86.08
67799;SHT30;54596;43.216;27.904;2023-06-10T00:11:21;18.19;85.87
67799;SHT30;54596;43.216;27.904;2023-06-10T00:13:46;18.16;85.58
67799;SHT30;54596;43.216;27.904;2023-06-10T00:16:12;18.10;85.22
67799;SHT30;54596;43.216;27.904;2023-06-10T00:18:38;18.09;84.93
67799;SHT30;54596;43.216;27.904;2023-06-10T00:21:04;18.08;84.87
67799;SHT30;54596;43.216;27.904;2023-06-10T00:23:30;18.06;84.89
67799;SHT30;54596;43.216;27.904;2023-06-10T00:25:58;18.05;84.92
67799;SHT30;54596;43.216;27.904;2023-06-10T00:28:24;18.01;85.09
67799;SHT30;54596;43.216;27.904;2023-06-10T00:30:49;18.02;85.32
67799;SHT30;54596;43.216;27.904;2023-06-10T00:33:15;18.01;85.38
67799;SHT30;54596;43.216;27.904;2023-06-10T00:35:41;17.98;85.44
67799;SHT30;54596;43.216;27.904;2023-06-10T00:38:06;17.98;85.50
67799;SHT30;54596;43.216;27.904;2023-06-10T00:40:35;17.92;85.43
67799;SHT30;54596;43.216;27.904;2023-06-10T00:43:04;17.91;85.44
67799;SHT30;54596;43.216;27.904;2023-06-10T00:45:29;17.88;85.50
67799;SHT30;54596;43.216;27.904;2023-06-10T00:47:55;17.91;85.21
67799;SHT30;54596;43.216;27.904;2023-06-10T00:50:21;17.91;85.12
67799;SHT30;54596;43.216;27.904;2023-06-10T00:52:47;17.94;84.95
67799;SHT30;54596;43.216;27.904;2023-06-10T00:55:16;17.91;84.90
67799;SHT30;54596;43.216;27.904;2023-06-10T00:57:41;17.94;84.72
67799;SHT30;54596;43.216;27.904;2023-06-10T01:00:10;17.88;84.62
67799;SHT30;54596;43.216;27.904;2023-06-10T01:02:36;17.87;84.52
67799;SHT30;54596;43.216;27.904;2023-06-10T01:05:02;17.91;84.52
67799;SHT30;54596;43.216;27.904;2023-06-10T01:07:36;17.84;84.66
67799;SHT30;54596;43.216;27.904;2023-06-10T01:10:14;17.87;84.60
67799;SHT30;54596;43.216;27.904;2023-06-10T01:12:55;17.87;84.46
67799;SHT30;54596;43.216;27.904;2023-06-10T01:15:24;17.84;84.53
67799;SHT30;54596;43.216;27.904;2023-06-10T01:18:16;17.82;84.60
67799;SHT30;54596;43.216;27.904;2023-06-10T01:20:43;17.80;84.66
67799;SHT30;54596;43.216;27.904;2023-06-10T01:23:10;17.74;84.92
67799;SHT30;54596;43.216;27.904;2023-06-10T01:25:51;17.74;84.73
67799;SHT30;54596;43.216;27.904;2023-06-10T01:28:45;17.75;84.59
67799;SHT30;54596;43.216;27.904;2023-06-10T01:33:48;17.69;84.69
67799;SHT30;54596;43.216;27.904;2023-06-10T01:36:16;17.63;84.86
67799;SHT30;54596;43.216;27.904;2023-06-10T01:38:43;17.55;85.13
67799;SHT30;54596;43.216;27.904;2023-06-10T01:41:10;17.49;85.46
67799;SHT30;54596;43.216;27.904;2023-06-10T01:43:38;17.54;85.22
67799;SHT30;54596;43.216;27.904;2023-06-10T01:46:03;17.47;85.34
67799;SHT30;54596;43.216;27.904;2023-06-10T01:48:29;17.47;85.30
67799;SHT30;54596;43.216;27.904;2023-06-10T01:50:54;17.47;85.31
67799;SHT30;54596;43.216;27.904;2023-06-10T01:53:23;17.50;85.04
67799;SHT30;54596;43.216;27.904;2023-06-10T01:55:48;17.49;85.08
67799;SHT30;54596;43.216;27.904;2023-06-10T01:58:14;17.39;85.21
67799;SHT30;54596;43.216;27.904;2023-06-10T02:00:39;17.43;85.21
67799;SHT30;54596;43.216;27.904;2023-06-10T02:03:05;17.40;85.46
67799;SHT30;54596;43.216;27.904;2023-06-10T02:05:31;17.37;85.57
67799;SHT30;54596;43.216;27.904;2023-06-10T02:07:56;17.32;85.80
67799;SHT30;54596;43.216;27.904;2023-06-10T02:10:22;17.33;85.79
67799;SHT30;54596;43.216;27.904;2023-06-10T02:12:47;17.37;85.81
67799;SHT30;54596;43.216;27.904;2023-06-10T02:15:13;17.30;85.91
67799;SHT30;54596;43.216;27.904;2023-06-10T02:17:38;17.23;85.99
67799;SHT30;54596;43.216;27.904;2023-06-10T02:20:05;17.23;85.95
67799;SHT30;54596;43.216;27.904;2023-06-10T02:22:32;17.20;86.02
67799;SHT30;54596;43.216;27.904;2023-06-10T02:24:58;17.19;85.93
67799;SHT30;54596;43.216;27.904;2023-06-10T02:27:23;17.16;86.12
67799;SHT30;54596;43.216;27.904;2023-06-10T02:29:49;17.18;86.03
67799;SHT30;54596;43.216;27.904;2023-06-10T02:32:15;17.16;86.01
67799;SHT30;54596;43.216;27.904;2023-06-10T02:34:41;17.20;85.99
67799;SHT30;54596;43.216;27.904;2023-06-10T02:37:08;17.23;85.41
67799;SHT30;54596;43.216;27.904;2023-06-10T02:39:33;17.20;85.06
67799;SHT30;54596;43.216;27.904;2023-06-10T02:45:20;17.15;84.90
67799;SHT30;54596;43.216;27.904;2023-06-10T02:47:46;17.14;84.80
67799;SHT30;54596;43.216;27.904;2023-06-10T02:50:11;17.12;84.96
67799;SHT30;54596;43.216;27.904;2023-06-10T02:52:38;17.11;84.80
67799;SHT30;54596;43.216;27.904;2023-06-10T02:55:04;17.08;84.85
67799;SHT30;54596;43.216;27.904;2023-06-10T02:57:30;17.14;84.67
67799;SHT30;54596;43.216;27.904;2023-06-10T02:59:56;17.14;84.68
67799;SHT30;54596;43.216;27.904;2023-06-10T03:02:21;17.09;84.87
67799;SHT30;54596;43.216;27.904;2023-06-10T03:04:47;17.07;85.10
67799;SHT30;54596;43.216;27.904;2023-06-10T03:07:15;17.08;85.23
67799;SHT30;54596;43.216;27.904;2023-06-10T03:09:41;17.14;84.91
67799;SHT30;54596;43.216;27.904;2023-06-10T03:12:07;17.18;84.63
67799;SHT30;54596;43.216;27.904;2023-06-10T03:14:32;17.25;83.88
67799;SHT30;54596;43.216;27.904;2023-06-10T03:16:59;17.22;83.80
67799;SHT30;54596;43.216;27.904;2023-06-10T03:19:25;17.23;83.33
67799;SHT30;54596;43.216;27.904;2023-06-10T03:22:13;17.29;83.23
67799;SHT30;54596;43.216;27.904;2023-06-10T03:24:39;17.35;83.23
67799;SHT30;54596;43.216;27.904;2023-06-10T03:27:09;17.39;83.34
67799;SHT30;54596;43.216;27.904;2023-06-10T03:29:37;17.42;83.36
67799;SHT30;54596;43.216;27.904;2023-06-10T03:32:02;17.43;83.54
67799;SHT30;54596;43.216;27.904;2023-06-10T03:34:28;17.50;83.42
67799;SHT30;54596;43.216;27.904;2023-06-10T03:36:55;17.59;83.25
67799;SHT30;54596;43.216;27.904;2023-06-10T03:39:21;17.50;83.60
67799;SHT30;54596;43.216;27.904;2023-06-10T03:41:46;17.69;83.44
67799;SHT30;54596;43.216;27.904;2023-06-10T03:44:12;17.71;83.39
67799;SHT30;54596;43.216;27.904;2023-06-10T03:46:37;17.82;83.34
67799;SHT30;54596;43.216;27.904;2023-06-10T03:49:03;17.87;83.09
67799;SHT30;54596;43.216;27.904;2023-06-10T03:51:29;17.97;82.80
67799;SHT30;54596;43.216;27.904;2023-06-10T03:53:55;17.92;82.99
67799;SHT30;54596;43.216;27.904;2023-06-10T03:56:21;17.92;83.13
67799;SHT30;54596;43.216;27.904;2023-06-10T03:58:46;17.99;82.73
67799;SHT30;54596;43.216;27.904;2023-06-10T04:01:12;18.21;81.70
67799;SHT30;54596;43.216;27.904;2023-06-10T04:03:40;18.30;81.37
67799;SHT30;54596;43.216;27.904;2023-06-10T04:06:07;18.40;80.89
67799;SHT30;54596;43.216;27.904;2023-06-10T04:08:33;18.46;80.58
67799;SHT30;54596;43.216;27.904;2023-06-10T04:10:58;18.47;80.70
67799;SHT30;54596;43.216;27.904;2023-06-10T04:13:24;18.44;80.50
67799;SHT30;54596;43.216;27.904;2023-06-10T04:15:49;18.49;80.42
67799;SHT30;54596;43.216;27.904;2023-06-10T04:18:16;18.51;80.24
67799;SHT30;54596;43.216;27.904;2023-06-10T04:20:41;18.51;80.18
67799;SHT30;54596;43.216;27.904;2023-06-10T04:23:07;18.63;79.96
67799;SHT30;54596;43.216;27.904;2023-06-10T04:25:33;18.72;79.79
67799;SHT30;54596;43.216;27.904;2023-06-10T04:27:58;18.81;82.05
67799;SHT30;54596;43.216;27.904;2023-06-10T04:30:24;18.84;81.35
67799;SHT30;54596;43.216;27.904;2023-06-10T04:32:49;18.88;81.10
67799;SHT30;54596;43.216;27.904;2023-06-10T04:35:15;18.85;80.56
67799;SHT30;54596;43.216;27.904;2023-06-10T04:37:41;18.95;78.87
67799;SHT30;54596;43.216;27.904;2023-06-10T04:40:08;18.98;78.53
67799;SHT30;54596;43.216;27.904;2023-06-10T04:42:34;19.05;78.28
67799;SHT30;54596;43.216;27.904;2023-06-10T04:45:03;19.12;78.40
67799;SHT30;54596;43.216;27.904;2023-06-10T04:47:29;19.24;79.41
67799;SHT30;54596;43.216;27.904;2023-06-10T04:49:58;19.31;78.03
67799;SHT30;54596;43.216;27.904;2023-06-10T04:52:24;19.41;78.07
67799;SHT30;54596;43.216;27.904;2023-06-10T04:54:49;19.50;77.57
67799;SHT30;54596;43.216;27.904;2023-06-10T04:57:15;19.57;77.23
67799;SHT30;54596;43.216;27.904;2023-06-10T04:59:40;19.68;77.16
67799;SHT30;54596;43.216;27.904;2023-06-10T05:02:06;19.78;77.05
67799;SHT30;54596;43.216;27.904;2023-06-10T05:04:31;19.89;76.82
67799;SHT30;54596;43.216;27.904;2023-06-10T05:06:57;20.02;76.21
67799;SHT30;54596;43.216;27.904;2023-06-10T05:09:22;20.17;75.25
67799;SHT30;54596;43.216;27.904;2023-06-10T05:11:47;20.36;74.87
67799;SHT30;54596;43.216;27.904;2023-06-10T05:14:13;20.57;74.25
67799;SHT30;54596;43.216;27.904;2023-06-10T05:16:39;20.85;73.01
67799;SHT30;54596;43.216;27.904;2023-06-10T05:19:05;21.09;72.23
67799;SHT30;54596;43.216;27.904;2023-06-10T05:21:30;21.27;71.63
67799;SHT30;54596;43.216;27.904;2023-06-10T05:23:56;21.62;71.28
67799;SHT30;54596;43.216;27.904;2023-06-10T05:26:21;22.02;70.40
67799;SHT30;54596;43.216;27.904;2023-06-10T05:28:47;22.45;69.64
67799;SHT30;54596;43.216;27.904;2023-06-10T05:31:13;23.31;67.63
67799;SHT30;54596;43.216;27.904;2023-06-10T05:33:39;24.96;63.98
67799;SHT30;54596;43.216;27.904;2023-06-10T05:36:04;26.75;60.13
67799;SHT30;54596;43.216;27.904;2023-06-10T05:38:30;28.14;56.48
67799;SHT30;54596;43.216;27.904;2023-06-10T05:40:56;29.23;54.23
67799;SHT30;54596;43.216;27.904;2023-06-10T05:43:22;30.23;52.69
67799;SHT30;54596;43.216;27.904;2023-06-10T05:45:47;31.24;50.35
67799;SHT30;54596;43.216;27.904;2023-06-10T05:48:13;32.00;49.85
67799;SHT30;54596;43.216;27.904;2023-06-10T05:50:39;32.25;48.75
67799;SHT30;54596;43.216;27.904;2023-06-10T05:53:07;32.19;48.99
67799;SHT30;54596;43.216;27.904;2023-06-10T05:55:33;31.58;50.47
67799;SHT30;54596;43.216;27.904;2023-06-10T05:57:59;31.94;49.60
67799;SHT30;54596;43.216;27.904;2023-06-10T06:00:26;32.25;49.26
67799;SHT30;54596;43.216;27.904;2023-06-10T06:02:52;32.69;48.69
67799;SHT30;54596;43.216;27.904;2023-06-10T06:05:19;32.79;48.14
67799;SHT30;54596;43.216;27.904;2023-06-10T06:07:45;33.10;48.17
67799;SHT30;54596;43.216;27.904;2023-06-10T06:10:10;33.41;46.91
67799;SHT30;54596;43.216;27.904;2023-06-10T06:12:36;33.04;47.15
67799;SHT30;54596;43.216;27.904;2023-06-10T06:15:01;32.67;48.24
67799;SHT30;54596;43.216;27.904;2023-06-10T06:17:27;32.79;47.53
67799;SHT30;54596;43.216;27.904;2023-06-10T06:19:52;33.17;46.48
67799;SHT30;54596;43.216;27.904;2023-06-10T06:22:18;33.76;45.38
67799;SHT30;54596;43.216;27.904;2023-06-10T06:24:46;33.90;45.55
67799;SHT30;54596;43.216;27.904;2023-06-10T06:27:12;33.71;44.95
67799;SHT30;54596;43.216;27.904;2023-06-10T06:29:37;33.96;45.01
67799;SHT30;54596;43.216;27.904;2023-06-10T06:32:03;34.26;44.22
67799;SHT30;54596;43.216;27.904;2023-06-10T06:34:29;34.58;43.41
67799;SHT30;54596;43.216;27.904;2023-06-10T06:36:54;33.30;44.45
67799;SHT30;54596;43.216;27.904;2023-06-10T06:39:20;32.71;45.02
67799;SHT30;54596;43.216;27.904;2023-06-10T06:41:45;32.10;45.82
67799;SHT30;54596;43.216;27.904;2023-06-10T06:44:10;31.96;46.49
67799;SHT30;54596;43.216;27.904;2023-06-10T06:46:36;31.88;46.75
67799;SHT30;54596;43.216;27.904;2023-06-10T06:49:01;31.14;48.02
67799;SHT30;54596;43.216;27.904;2023-06-10T06:51:27;32.74;45.66
67799;SHT30;54596;43.216;27.904;2023-06-10T06:53:52;34.23;43.29
67799;SHT30;54596;43.216;27.904;2023-06-10T06:56:22;35.44;42.28
67799;SHT30;54596;43.216;27.904;2023-06-10T06:58:47;35.64;41.93
67799;SHT30;54596;43.216;27.904;2023-06-10T07:01:13;36.58;40.65
67799;SHT30;54596;43.216;27.904;2023-06-10T07:03:39;37.89;39.25
67799;SHT30;54596;43.216;27.904;2023-06-10T07:06:04;38.37;38.38
67799;SHT30;54596;43.216;27.904;2023-06-10T07:08:30;38.09;38.15
67799;SHT30;54596;43.216;27.904;2023-06-10T07:10:55;37.47;38.92
67799;SHT30;54596;43.216;27.904;2023-06-10T07:13:21;37.98;38.92
67799;SHT30;54596;43.216;27.904;2023-06-10T07:15:46;38.17;37.94
67799;SHT30;54596;43.216;27.904;2023-06-10T07:18:12;37.53;37.65
67799;SHT30;54596;43.216;27.904;2023-06-10T07:20:37;37.15;38.38
67799;SHT30;54596;43.216;27.904;2023-06-10T07:23:03;36.98;38.49
67799;SHT30;54596;43.216;27.904;2023-06-10T07:25:28;36.74;38.86
67799;SHT30;54596;43.216;27.904;2023-06-10T07:27:54;36.06;38.27
67799;SHT30;54596;43.216;27.904;2023-06-10T07:30:19;35.16;39.83
67799;SHT30;54596;43.216;27.904;2023-06-10T07:32:45;34.52;41.26
67799;SHT30;54596;43.216;27.904;2023-06-10T07:35:10;34.21;41.85
67799;SHT30;54596;43.216;27.904;2023-06-10T07:37:36;33.73;42.02
67799;SHT30;54596;43.216;27.904;2023-06-10T07:40:02;33.12;43.01
67799;SHT30;54596;43.216;27.904;2023-06-10T07:42:27;33.06;43.18
67799;SHT30;54596;43.216;27.904;2023-06-10T07:44:53;32.65;43.86
67799;SHT30;54596;43.216;27.904;2023-06-10T07:47:18;33.76;42.74
67799;SHT30;54596;43.216;27.904;2023-06-10T07:49:44;35.54;40.54
67799;SHT30;54596;43.216;27.904;2023-06-10T07:52:09;36.91;38.54
67799;SHT30;54596;43.216;27.904;2023-06-10T07:54:35;37.55;37.64
67799;SHT30;54596;43.216;27.904;2023-06-10T07:57:01;38.43;37.30
67799;SHT30;54596;43.216;27.904;2023-06-10T07:59:26;39.15;36.05
67799;SHT30;54596;43.216;27.904;2023-06-10T08:01:53;38.41;36.19
67799;SHT30;54596;43.216;27.904;2023-06-10T08:04:18;38.50;37.65
67799;SHT30;54596;43.216;27.904;2023-06-10T08:06:44;38.95;35.43
67799;SHT30;54596;43.216;27.904;2023-06-10T08:09:09;38.54;36.78
67799;SHT30;54596;43.216;27.904;2023-06-10T08:11:35;37.74;37.12
67799;SHT30;54596;43.216;27.904;2023-06-10T08:14:00;37.46;37.15
67799;SHT30;54596;43.216;27.904;2023-06-10T08:16:26;36.27;38.50
67799;SHT30;54596;43.216;27.904;2023-06-10T08:18:51;34.44;40.30
67799;SHT30;54596;43.216;27.904;2023-06-10T08:21:18;33.35;41.93
67799;SHT30;54596;43.216;27.904;2023-06-10T08:23:43;33.04;42.93
67799;SHT30;54596;43.216;27.904;2023-06-10T08:26:09;32.59;42.99
67799;SHT30;54596;43.216;27.904;2023-06-10T08:28:34;32.07;49.42
67799;SHT30;54596;43.216;27.904;2023-06-10T08:31:00;33.04;42.31
67799;SHT30;54596;43.216;27.904;2023-06-10T08:33:25;33.64;41.56
67799;SHT30;54596;43.216;27.904;2023-06-10T08:35:51;32.59;42.67
67799;SHT30;54596;43.216;27.904;2023-06-10T08:38:16;31.94;43.51
67799;SHT30;54596;43.216;27.904;2023-06-10T08:40:42;33.30;41.36
67799;SHT30;54596;43.216;27.904;2023-06-10T08:43:13;32.71;43.02
67799;SHT30;54596;43.216;27.904;2023-06-10T08:45:42;32.25;43.03
67799;SHT30;54596;43.216;27.904;2023-06-10T08:48:12;33.31;42.23
67799;SHT30;54596;43.216;27.904;2023-06-10T08:50:39;33.51;41.63
67799;SHT30;54596;43.216;27.904;2023-06-10T08:53:07;33.40;41.89
67799;SHT30;54596;43.216;27.904;2023-06-10T08:55:35;33.00;40.53
67799;SHT30;54596;43.216;27.904;2023-06-10T08:58:01;32.87;40.55
67799;SHT30;54596;43.216;27.904;2023-06-10T09:00:28;32.82;40.61
67799;SHT30;54596;43.216;27.904;2023-06-10T09:02:55;32.69;40.71
67799;SHT30;54596;43.216;27.904;2023-06-10T09:05:22;32.24;41.78
67799;SHT30;54596;43.216;27.904;2023-06-10T09:07:47;32.20;42.01
67799;SHT30;54596;43.216;27.904;2023-06-10T09:10:13;32.06;42.05
67799;SHT30;54596;43.216;27.904;2023-06-10T09:12:39;31.57;42.89
67799;SHT30;54596;43.216;27.904;2023-06-10T09:15:06;31.00;42.82
67799;SHT30;54596;43.216;27.904;2023-06-10T09:17:32;30.30;43.32
67799;SHT30;54596;43.216;27.904;2023-06-10T09:19:59;29.79;44.18
67799;SHT30;54596;43.216;27.904;2023-06-10T09:22:25;29.58;44.44
67799;SHT30;54596;43.216;27.904;2023-06-10T09:25:01;29.51;45.20
67799;SHT30;54596;43.216;27.904;2023-06-10T09:27:30;29.28;44.82
67799;SHT30;54596;43.216;27.904;2023-06-10T09:29:56;29.41;45.48
67799;SHT30;54596;43.216;27.904;2023-06-10T09:32:23;29.41;45.07
67799;SHT30;54596;43.216;27.904;2023-06-10T09:34:49;29.20;45.23
67799;SHT30;54596;43.216;27.904;2023-06-10T09:37:23;29.17;45.04
67799;SHT30;54596;43.216;27.904;2023-06-10T09:40:07;29.19;44.89
67799;SHT30;54596;43.216;27.904;2023-06-10T09:42:35;29.13;45.34
67799;SHT30;54596;43.216;27.904;2023-06-10T09:45:02;29.11;45.02
67799;SHT30;54596;43.216;27.904;2023-06-10T09:47:28;29.10;44.39
67799;SHT30;54596;43.216;27.904;2023-06-10T09:49:53;28.92;45.49
67799;SHT30;54596;43.216;27.904;2023-06-10T09:52:27;28.64;46.91
67799;SHT30;54596;43.216;27.904;2023-06-10T09:55:02;28.59;51.03
67799;SHT30;54596;43.216;27.904;2023-06-10T09:57:31;28.44;47.34
67799;SHT30;54596;43.216;27.904;2023-06-10T10:00:10;28.59;48.37
67799;SHT30;54596;43.216;27.904;2023-06-10T10:02:46;28.72;45.78
67799;SHT30;54596;43.216;27.904;2023-06-10T10:05:16;28.89;45.26
67799;SHT30;54596;43.216;27.904;2023-06-10T10:07:42;28.92;44.92
67799;SHT30;54596;43.216;27.904;2023-06-10T10:10:08;29.09;44.60
67799;SHT30;54596;43.216;27.904;2023-06-10T10:12:36;29.38;44.70
67799;SHT30;54596;43.216;27.904;2023-06-10T10:15:03;29.39;44.31
67799;SHT30;54596;43.216;27.904;2023-06-10T10:20:04;29.27;43.95
67799;SHT30;54596;43.216;27.904;2023-06-10T10:22:41;29.06;43.64
67799;SHT30;54596;43.216;27.904;2023-06-10T10:25:11;29.17;43.51
67799;SHT30;54596;43.216;27.904;2023-06-10T10:30:17;29.38;43.17
67799;SHT30;54596;43.216;27.904;2023-06-10T10:33:00;29.38;43.85
67799;SHT30;54596;43.216;27.904;2023-06-10T10:35:26;29.52;43.96
67799;SHT30;54596;43.216;27.904;2023-06-10T10:37:53;29.39;43.56
67799;SHT30;54596;43.216;27.904;2023-06-10T10:40:20;29.41;43.41
67799;SHT30;54596;43.216;27.904;2023-06-10T10:42:50;29.50;43.75
67799;SHT30;54596;43.216;27.904;2023-06-10T10:45:16;29.51;43.59
67799;SHT30;54596;43.216;27.904;2023-06-10T10:47:44;29.44;43.78
67799;SHT30;54596;43.216;27.904;2023-06-10T10:50:16;29.33;43.27
67799;SHT30;54596;43.216;27.904;2023-06-10T10:55:20;29.27;44.00
67799;SHT30;54596;43.216;27.904;2023-06-10T10:57:57;29.39;44.49
67799;SHT30;54596;43.216;27.904;2023-06-10T11:03:04;29.44;44.72
67799;SHT30;54596;43.216;27.904;2023-06-10T11:05:50;29.73;45.17
67799;SHT30;54596;43.216;27.904;2023-06-10T11:10:53;30.06;44.88
67799;SHT30;54596;43.216;27.904;2023-06-10T11:13:20;30.18;45.28
67799;SHT30;54596;43.216;27.904;2023-06-10T11:15:48;30.12;44.87
67799;SHT30;54596;43.216;27.904;2023-06-10T11:18:24;29.63;44.69
67799;SHT30;54596;43.216;27.904;2023-06-10T11:26:16;29.27;45.71
67799;SHT30;54596;43.216;27.904;2023-06-10T11:29:01;29.19;45.80
67799;SHT30;54596;43.216;27.904;2023-06-10T11:32:10;29.39;44.89
67799;SHT30;54596;43.216;27.904;2023-06-10T11:34:23;29.51;45.94
67799;SHT30;54596;43.216;27.904;2023-06-10T11:36:51;29.72;43.78
67799;SHT30;54596;43.216;27.904;2023-06-10T11:39:18;29.93;45.86
67799;SHT30;54596;43.216;27.904;2023-06-10T11:41:45;30.12;47.73
67799;SHT30;54596;43.216;27.904;2023-06-10T11:44:12;30.02;42.88
67799;SHT30;54596;43.216;27.904;2023-06-10T11:46:38;29.93;42.69
67799;SHT30;54596;43.216;27.904;2023-06-10T11:49:05;29.86;44.37
67799;SHT30;54596;43.216;27.904;2023-06-10T11:51:36;29.99;46.34
67799;SHT30;54596;43.216;27.904;2023-06-10T11:54:02;29.90;46.58
67799;SHT30;54596;43.216;27.904;2023-06-10T11:56:30;29.68;46.48
67799;SHT30;54596;43.216;27.904;2023-06-10T11:59:01;29.68;45.75
67799;SHT30;54596;43.216;27.904;2023-06-10T12:01:30;29.63;45.53
67799;SHT30;54596;43.216;27.904;2023-06-10T12:04:02;29.75;46.21
67799;SHT30;54596;43.216;27.904;2023-06-10T12:06:41;29.73;46.42
67799;SHT30;54596;43.216;27.904;2023-06-10T12:09:13;29.89;44.61
67799;SHT30;54596;43.216;27.904;2023-06-10T12:11:39;29.88;44.88
67799;SHT30;54596;43.216;27.904;2023-06-10T12:14:05;29.76;43.30
67799;SHT30;54596;43.216;27.904;2023-06-10T12:16:31;29.82;43.26
67799;SHT30;54596;43.216;27.904;2023-06-10T12:19:06;29.86;43.12
67799;SHT30;54596;43.216;27.904;2023-06-10T12:21:33;29.96;42.75
67799;SHT30;54596;43.216;27.904;2023-06-10T12:24:07;30.12;42.42
67799;SHT30;54596;43.216;27.904;2023-06-10T12:31:58;30.03;44.13
67799;SHT30;54596;43.216;27.904;2023-06-10T12:34:32;29.90;44.32
67799;SHT30;54596;43.216;27.904;2023-06-10T12:37:02;30.00;44.73
67799;SHT30;54596;43.216;27.904;2023-06-10T12:39:32;30.16;44.68
67799;SHT30;54596;43.216;27.904;2023-06-10T12:41:58;30.05;44.27
67799;SHT30;54596;43.216;27.904;2023-06-10T12:44:32;30.07;43.91
67799;SHT30;54596;43.216;27.904;2023-06-10T12:46:57;30.20;44.24
67799;SHT30;54596;43.216;27.904;2023-06-10T12:49:23;30.27;44.11
67799;SHT30;54596;43.216;27.904;2023-06-10T12:51:49;30.23;44.33
67799;SHT30;54596;43.216;27.904;2023-06-10T12:54:14;30.28;44.44
67799;SHT30;54596;43.216;27.904;2023-06-10T12:56:40;30.24;45.24
67799;SHT30;54596;43.216;27.904;2023-06-10T12:59:05;30.41;45.34
67799;SHT30;54596;43.216;27.904;2023-06-10T13:01:31;30.48;45.33
67799;SHT30;54596;43.216;27.904;2023-06-10T13:03:57;30.41;45.19
67799;SHT30;54596;43.216;27.904;2023-06-10T13:06:22;30.07;45.17
67799;SHT30;54596;43.216;27.904;2023-06-10T13:08:48;30.03;45.53
67799;SHT30;54596;43.216;27.904;2023-06-10T13:11:13;30.09;46.13
67799;SHT30;54596;43.216;27.904;2023-06-10T13:13:39;29.88;46.10
67799;SHT30;54596;43.216;27.904;2023-06-10T13:16:05;29.58;45.70
67799;SHT30;54596;43.216;27.904;2023-06-10T13:18:30;29.54;46.98
67799;SHT30;54596;43.216;27.904;2023-06-10T13:21:03;29.61;48.81
67799;SHT30;54596;43.216;27.904;2023-06-10T13:23:28;29.51;46.96
67799;SHT30;54596;43.216;27.904;2023-06-10T13:25:54;29.44;48.12
67799;SHT30;54596;43.216;27.904;2023-06-10T13:28:21;29.43;49.91
67799;SHT30;54596;43.216;27.904;2023-06-10T13:30:47;29.51;47.82
67799;SHT30;54596;43.216;27.904;2023-06-10T13:33:13;29.52;49.31
67799;SHT30;54596;43.216;27.904;2023-06-10T13:35:38;29.62;48.19
67799;SHT30;54596;43.216;27.904;2023-06-10T13:38:06;29.66;49.33
67799;SHT30;54596;43.216;27.904;2023-06-10T13:40:32;29.76;46.60
67799;SHT30;54596;43.216;27.904;2023-06-10T13:42:59;29.78;46.23
67799;SHT30;54596;43.216;27.904;2023-06-10T13:45:24;29.82;46.22
67799;SHT30;54596;43.216;27.904;2023-06-10T13:47:50;29.88;46.90
67799;SHT30;54596;43.216;27.904;2023-06-10T13:50:16;29.76;45.48
67799;SHT30;54596;43.216;27.904;2023-06-10T13:52:41;29.30;48.93
67799;SHT30;54596;43.216;27.904;2023-06-10T13:55:07;28.65;49.90
67799;SHT30;54596;43.216;27.904;2023-06-10T13:57:34;28.25;50.81
67799;SHT30;54596;43.216;27.904;2023-06-10T13:59:59;28.09;51.40
67799;SHT30;54596;43.216;27.904;2023-06-10T14:02:25;28.03;51.54
67799;SHT30;54596;43.216;27.904;2023-06-10T14:04:50;27.93;51.97
67799;SHT30;54596;43.216;27.904;2023-06-10T14:07:16;27.78;51.20
67799;SHT30;54596;43.216;27.904;2023-06-10T14:09:41;27.68;51.72
67799;SHT30;54596;43.216;27.904;2023-06-10T14:12:07;27.62;51.52
67799;SHT30;54596;43.216;27.904;2023-06-10T14:14:34;27.41;51.78
67799;SHT30;54596;43.216;27.904;2023-06-10T14:16:59;27.33;54.19
67799;SHT30;54596;43.216;27.904;2023-06-10T14:19:25;27.23;56.05
67799;SHT30;54596;43.216;27.904;2023-06-10T14:21:50;27.16;56.81
67799;SHT30;54596;43.216;27.904;2023-06-10T14:24:18;26.99;58.12
67799;SHT30;54596;43.216;27.904;2023-06-10T14:26:43;26.91;57.13
67799;SHT30;54596;43.216;27.904;2023-06-10T14:29:09;26.98;58.11
67799;SHT30;54596;43.216;27.904;2023-06-10T14:31:35;26.92;58.07
67799;SHT30;54596;43.216;27.904;2023-06-10T14:34:00;26.85;58.09
67799;SHT30;54596;43.216;27.904;2023-06-10T14:36:26;26.74;58.89
67799;SHT30;54596;43.216;27.904;2023-06-10T14:38:51;26.72;57.23
67799;SHT30;54596;43.216;27.904;2023-06-10T14:41:17;26.72;56.68
67799;SHT30;54596;43.216;27.904;2023-06-10T14:43:42;26.67;57.69
67799;SHT30;54596;43.216;27.904;2023-06-10T14:46:08;26.54;58.72
67799;SHT30;54596;43.216;27.904;2023-06-10T14:48:33;26.45;61.57
67799;SHT30;54596;43.216;27.904;2023-06-10T14:50:59;26.43;60.11
67799;SHT30;54596;43.216;27.904;2023-06-10T14:53:24;26.34;61.17
67799;SHT30;54596;43.216;27.904;2023-06-10T14:55:50;26.33;59.06
67799;SHT30;54596;43.216;27.904;2023-06-10T14:58:15;26.23;56.51
67799;SHT30;54596;43.216;27.904;2023-06-10T15:00:41;26.17;58.26
67799;SHT30;54596;43.216;27.904;2023-06-10T15:03:06;26.26;58.10
67799;SHT30;54596;43.216;27.904;2023-06-10T15:05:32;26.21;59.64
67799;SHT30;54596;43.216;27.904;2023-06-10T15:07:59;26.21;59.35
67799;SHT30;54596;43.216;27.904;2023-06-10T15:10:25;26.12;58.78
67799;SHT30;54596;43.216;27.904;2023-06-10T15:12:50;26.00;59.33
67799;SHT30;54596;43.216;27.904;2023-06-10T15:15:24;25.89;59.77
67799;SHT30;54596;43.216;27.904;2023-06-10T15:17:51;25.81;61.01
67799;SHT30;54596;43.216;27.904;2023-06-10T15:20:17;25.71;60.94
67799;SHT30;54596;43.216;27.904;2023-06-10T15:22:43;25.68;61.57
67799;SHT30;54596;43.216;27.904;2023-06-10T15:25:08;25.69;61.51
67799;SHT30;54596;43.216;27.904;2023-06-10T15:27:34;25.60;63.93
67799;SHT30;54596;43.216;27.904;2023-06-10T15:30:00;25.55;65.20
67799;SHT30;54596;43.216;27.904;2023-06-10T15:32:25;25.47;65.02
67799;SHT30;54596;43.216;27.904;2023-06-10T15:34:50;25.38;66.78
67799;SHT30;54596;43.216;27.904;2023-06-10T15:37:18;25.26;65.06
67799;SHT30;54596;43.216;27.904;2023-06-10T15:39:44;25.19;64.72
67799;SHT30;54596;43.216;27.904;2023-06-10T15:42:09;25.09;65.89
67799;SHT30;54596;43.216;27.904;2023-06-10T15:44:35;25.19;65.41